Time;durP1;ratioP1;P1;durP2;ratioP2;P2;SDS_P1;SDS_P2;PMS_P1;PMS_P2;Temp;Humidity;BMP_temperature;BMP_pressure;BME280_temperature;BME280_humidity;BME280_pressure;Samples;Min_cycle;Max_cycle;Signal;HPM_P1;HPM_P2
2022/01/17 00:00:14;;;;;;;55.53;28.93;;;;;;;7.83;61.89;101843.00;10535002;28;20498;-84
2022/01/17 00:05:19;;;;;;;56.00;29.07;;;;;;;7.95;61.73;101856.81;10518734;28;20836;-85
2022/01/17 00:10:22;;;;;;;56.63;28.93;;;;;;;8.04;61.61;101852.41;10534714;28;20661;-87
2022/01/17 00:15:42;;;;;;;60.77;31.13;;;;;;;8.27;60.72;101854.00;10515489;28;20218;-85
2022/01/17 00:20:46;;;;;;;59.77;29.97;;;;;;;7.84;62.37;101871.84;10518928;28;20536;-84
2022/01/17 00:25:48;;;;;;;60.53;30.57;;;;;;;7.17;63.06;101877.84;10530838;28;20203;-86
2022/01/17 00:30:50;;;;;;;62.93;30.97;;;;;;;7.48;63.75;101879.91;10533983;28;20202;-85
2022/01/17 00:35:53;;;;;;;61.57;30.70;;;;;;;7.82;62.01;101862.88;10528379;28;20677;-88
2022/01/17 00:40:55;;;;;;;62.20;31.07;;;;;;;7.89;62.17;101835.50;10533005;28;20224;-85
2022/01/17 00:45:58;;;;;;;63.37;30.87;;;;;;;7.72;62.28;101849.63;10517756;28;20588;-85
2022/01/17 00:51:00;;;;;;;65.43;30.80;;;;;;;7.71;62.66;101852.69;10491546;28;20202;-85
2022/01/17 00:56:04;;;;;;;60.03;29.13;;;;;;;7.55;62.20;101860.94;10512031;28;20275;-85
2022/01/17 01:01:07;;;;;;;59.70;28.13;;;;;;;7.35;62.69;101863.53;10495264;28;20198;-91
2022/01/17 01:06:10;;;;;;;50.73;24.73;;;;;;;7.59;62.13;101873.28;10532460;28;20226;-85
2022/01/17 01:11:13;;;;;;;55.33;26.50;;;;;;;7.90;61.96;101857.59;10515201;28;20606;-84
2022/01/17 01:36:47;;;;;;;63.00;29.97;;;;;;;7.84;61.54;101871.84;10531607;28;20230;-85
2022/01/17 01:41:50;;;;;;;57.53;28.60;;;;;;;8.35;59.17;101886.22;10557990;28;20675;-88
2022/01/17 01:46:53;;;;;;;50.67;26.37;;;;;;;8.26;59.21;101903.53;10552836;28;20212;-85
2022/01/17 01:51:56;;;;;;;64.50;28.83;;;;;;;7.49;61.89;101903.13;10553655;28;20202;-85
2022/01/17 01:56:58;;;;;;;54.27;28.77;;;;;;;7.98;60.79;101887.06;10538400;28;20214;-84
2022/01/17 02:02:01;;;;;;;52.90;28.07;;;;;;;8.24;59.11;101897.38;10504520;28;20199;-85
2022/01/17 02:07:03;;;;;;;51.40;27.40;;;;;;;7.14;63.02;101892.31;10485681;28;20226;-88
2022/01/17 02:12:07;;;;;;;48.03;26.77;;;;;;;7.70;61.04;101876.19;10529588;28;20541;-85
2022/01/17 02:17:09;;;;;;;47.17;26.83;;;;;;;8.39;57.58;101876.19;10513287;28;20230;-84
2022/01/17 02:22:13;;;;;;;53.00;27.13;;;;;;;7.44;61.91;101892.72;10513862;28;20203;-87
2022/01/17 02:27:16;;;;;;;48.03;26.93;;;;;;;8.05;60.10;101879.28;10534734;28;20198;-85
2022/01/17 02:32:18;;;;;;;47.03;26.57;;;;;;;8.10;59.44;101876.53;10506831;28;20226;-85
2022/01/17 02:37:22;;;;;;;46.27;25.80;;;;;;;7.51;61.71;101884.94;10529025;28;20226;-90
2022/01/17 02:42:26;;;;;;;45.93;27.17;;;;;;;7.29;62.70;101863.72;10514857;28;20202;-87
2022/01/17 02:47:30;;;;;;;55.07;27.33;;;;;;;8.40;58.08;101852.72;10512879;28;20511;-85
2022/01/17 02:52:33;;;;;;;56.07;26.87;;;;;;;7.77;60.12;101874.00;10511150;28;20248;-86
2022/01/17 02:57:35;;;;;;;53.87;27.57;;;;;;;8.58;58.07;101846.63;10511912;28;20252;-88
2022/01/17 03:02:37;;;;;;;51.63;27.30;;;;;;;7.99;59.00;101871.97;10529511;28;20203;-87
2022/01/17 03:07:39;;;;;;;52.43;27.53;;;;;;;7.86;60.19;101878.00;10545158;28;20218;-85
2022/01/17 03:12:42;;;;;;;57.03;27.93;;;;;;;8.06;59.68;101864.19;10511439;28;20255;-84
2022/01/17 03:17:44;;;;;;;54.00;27.03;;;;;;;8.25;59.41;101873.00;10512428;28;20222;-85
2022/01/17 03:22:46;;;;;;;57.87;28.83;;;;;;;8.06;60.26;101868.94;10526550;28;20244;-85
2022/01/17 03:27:49;;;;;;;56.07;29.47;;;;;;;8.40;57.88;101859.16;10514125;28;20578;-84
2022/01/17 03:32:51;;;;;;;58.70;27.77;;;;;;;7.63;61.39;101892.34;10528273;28;20203;-85
2022/01/17 03:37:53;;;;;;;53.47;27.60;;;;;;;8.06;58.49;101872.56;10509171;28;20245;-88
2022/01/17 03:42:55;;;;;;;51.70;27.93;;;;;;;8.29;58.18;101885.34;10519158;28;20211;-84
2022/01/17 03:47:58;;;;;;;53.03;26.53;;;;;;;7.87;59.25;101879.72;10509376;28;20247;-84
2022/01/17 03:53:00;;;;;;;56.87;27.27;;;;;;;7.79;59.43;101885.78;10508821;28;20211;-89
2022/01/17 03:58:04;;;;;;;53.67;26.33;;;;;;;7.39;60.78;101881.44;10554024;28;20244;-88
2022/01/17 04:03:06;;;;;;;48.03;26.80;;;;;;;7.56;60.81;101893.38;10507956;28;20206;-84
2022/01/17 04:08:10;;;;;;;51.63;25.07;;;;;;;8.10;58.56;101893.34;10526334;28;20630;-88
2022/01/17 04:13:12;;;;;;;51.20;26.03;;;;;;;8.00;58.94;101898.84;10532178;28;20199;-84
2022/01/17 04:18:15;;;;;;;51.00;25.87;;;;;;;7.87;59.77;101893.69;10533011;28;20226;-84
2022/01/17 04:23:18;;;;;;;52.63;27.33;;;;;;;8.57;56.46;101886.97;10538084;28;20203;-84
2022/01/17 04:28:20;;;;;;;47.40;25.03;;;;;;;7.75;58.51;101901.41;10512051;28;20198;-88
2022/01/17 04:33:22;;;;;;;48.30;23.87;;;;;;;8.45;57.24;101900.34;10546802;28;20199;-85
2022/01/17 04:38:25;;;;;;;42.77;22.10;;;;;;;7.80;58.65;101912.63;10531550;28;20287;-91
2022/01/17 04:45:07;;;;;;;40.43;21.87;;;;;;;7.61;59.07;101905.75;10492643;28;20199;-85
2022/01/17 04:48:58;;;;;;;50.57;24.37;;;;;;;8.17;57.47;101901.50;10539191;28;20255;-83
2022/01/17 04:54:22;;;;;;;42.20;22.40;;;;;;;7.67;59.34;101899.09;10525864;28;20207;-88
2022/01/17 04:59:22;;;;;;;39.23;21.37;;;;;;;8.32;57.57;101896.84;10543600;28;20218;-88
2022/01/17 05:04:25;;;;;;;42.90;22.47;;;;;;;7.34;59.83;101919.72;10531978;28;20240;-88
2022/01/17 05:09:27;;;;;;;41.97;23.90;;;;;;;7.67;59.22;101913.06;10525221;28;20627;-86
2022/01/17 05:14:29;;;;;;;43.60;22.63;;;;;;;7.46;60.58;101931.59;10511408;28;20303;-84
2022/01/17 05:19:48;;;;;;;41.97;21.53;;;;;;;7.97;57.89;101932.13;10519948;28;20254;-85
2022/01/17 05:24:51;;;;;;;37.50;20.67;;;;;;;7.49;60.14;101945.91;10523149;28;20239;-89
2022/01/17 05:29:53;;;;;;;32.67;18.80;;;;;;;7.56;58.83;101951.28;10522662;28;20202;-84
2022/01/17 05:34:56;;;;;;;33.33;17.43;;;;;;;7.83;58.88;101954.94;10519400;28;20330;-85
2022/01/17 05:39:59;;;;;;;35.87;16.57;;;;;;;7.71;58.46;101950.59;10495225;28;20623;-86
2022/01/17 05:45:02;;;;;;;28.37;15.20;;;;;;;7.74;57.80;101950.94;10519938;28;20195;-84
2022/01/17 05:50:05;;;;;;;30.33;14.80;;;;;;;7.37;58.99;101942.38;10519410;28;20203;-87
2022/01/17 05:55:13;;;;;;;24.60;13.17;;;;;;;7.64;57.68;101933.16;10498725;28;20256;-85
2022/01/17 06:00:17;;;;;;;26.27;12.10;;;;;;;7.33;57.82;101916.06;10512299;28;20248;-85
2022/01/17 06:05:21;;;;;;;22.43;10.70;;;;;;;7.45;57.25;101919.56;10505440;28;20331;-84
2022/01/17 06:10:24;;;;;;;23.03;9.90;;;;;;;6.74;59.73;101918.63;10495267;28;20547;-84
2022/01/17 06:15:26;;;;;;;21.17;9.63;;;;;;;8.37;54.86;101898.84;10504327;28;20448;-84
2022/01/17 06:20:28;;;;;;;18.90;9.33;;;;;;;7.75;56.03;101915.41;10489605;28;20280;-83
2022/01/17 06:25:30;;;;;;;18.60;9.80;;;;;;;7.74;54.91;101922.09;10511512;28;20198;-83
2022/01/17 06:30:33;;;;;;;19.20;8.80;;;;;;;7.36;56.95;101912.75;10521692;28;20247;-83
2022/01/17 06:35:35;;;;;;;21.87;8.20;;;;;;;7.05;58.40;101913.44;10504134;28;20339;-82
2022/01/17 06:40:38;;;;;;;22.33;8.40;;;;;;;7.27;58.29;101919.91;10476595;28;20222;-83
2022/01/17 06:45:43;;;;;;;26.93;9.10;;;;;;;7.22;58.18;101908.69;10528666;28;20251;-83
2022/01/17 06:50:45;;;;;;;19.97;8.30;;;;;;;7.49;56.99;101903.97;10512787;28;20244;-83
2022/01/17 06:55:47;;;;;;;16.20;8.40;;;;;;;7.43;57.92;101910.59;10512040;28;20203;-83
2022/01/17 07:00:49;;;;;;;16.53;8.33;;;;;;;7.32;57.58;101928.34;10525990;28;20287;-83
2022/01/17 07:05:52;;;;;;;18.40;7.40;;;;;;;7.83;56.62;101943.75;10514110;28;20294;-83
2022/01/17 07:10:54;;;;;;;14.13;7.37;;;;;;;8.07;55.25;101955.44;10514199;28;20275;-83
2022/01/17 07:15:56;;;;;;;19.30;7.10;;;;;;;7.53;56.46;101969.41;10503399;28;20221;-83
2022/01/17 07:20:59;;;;;;;13.03;6.70;;;;;;;8.12;54.71;101924.69;10508437;28;20234;-84
2022/01/17 07:26:01;;;;;;;17.03;7.23;;;;;;;7.78;55.96;101934.44;10542404;28;20206;-83
2022/01/17 07:31:03;;;;;;;17.40;7.00;;;;;;;7.72;56.27;101939.16;10530560;28;20195;-83
2022/01/17 07:36:06;;;;;;;12.90;8.33;;;;;;;7.84;56.10;101944.59;10531372;28;20491;-83
2022/01/17 07:41:08;;;;;;;18.07;7.83;;;;;;;7.75;56.62;101957.38;10507771;28;20268;-84
2022/01/17 07:46:47;;;;;;;17.27;7.90;;;;;;;7.71;57.25;101972.97;10506651;28;20202;-83
2022/01/17 07:51:59;;;;;;;14.77;7.20;;;;;;;7.42;57.78;101970.41;10528153;28;20202;-84
2022/01/17 07:57:02;;;;;;;15.70;8.40;;;;;;;8.01;56.73;101976.13;10530974;28;20334;-84
2022/01/17 08:02:04;;;;;;;21.93;9.87;;;;;;;7.85;57.31;101986.28;10533792;28;20263;-83
2022/01/17 08:07:07;;;;;;;19.53;8.63;;;;;;;7.45;58.20;101997.00;10507486;28;20226;-83
2022/01/17 08:12:10;;;;;;;18.27;9.20;;;;;;;8.00;56.86;101998.75;10527377;28;20599;-84
2022/01/17 08:17:12;;;;;;;19.40;10.70;;;;;;;7.85;57.67;102007.84;10538542;28;20496;-84
2022/01/17 08:22:14;;;;;;;21.37;11.03;;;;;;;7.79;58.76;102004.13;10527721;28;20677;-83
2022/01/17 08:27:17;;;;;;;24.50;13.33;;;;;;;7.76;58.17;101992.63;10534719;28;20799;-83
2022/01/17 08:32:20;;;;;;;18.83;12.83;;;;;;;7.99;56.54;101997.06;10526722;28;20511;-84
2022/01/17 08:37:24;;;;;;;22.07;14.70;;;;;;;7.91;57.83;102001.16;10538615;28;20256;-84
2022/01/17 08:42:27;;;;;;;22.73;15.13;;;;;;;7.94;58.13;102003.44;10513321;28;20199;-84
2022/01/17 08:47:29;;;;;;;23.33;14.57;;;;;;;7.35;59.73;102017.31;10529856;28;20206;-84
2022/01/17 08:52:32;;;;;;;24.80;16.77;;;;;;;7.58;59.79;102011.44;10522111;28;20531;-83
2022/01/17 08:57:34;;;;;;;25.50;16.03;;;;;;;7.99;58.50;102009.13;10510980;28;20241;-84
2022/01/17 09:02:36;;;;;;;27.60;17.37;;;;;;;7.62;59.41;102002.53;10530448;28;20536;-84
2022/01/17 09:07:38;;;;;;;23.17;17.47;;;;;;;7.75;60.28;101997.38;10514196;28;20244;-85
2022/01/17 09:12:41;;;;;;;27.80;19.67;;;;;;;7.45;61.54;102011.00;10525908;28;20255;-82
2022/01/17 09:17:44;;;;;;;32.43;18.97;;;;;;;8.19;58.90;102014.91;10532789;28;20221;-82
2022/01/17 09:22:46;;;;;;;31.07;19.33;;;;;;;7.99;58.94;102008.25;10530025;28;20210;-82
2022/01/17 09:27:49;;;;;;;31.40;19.67;;;;;;;7.62;59.85;101997.78;10531430;28;20190;-85
2022/01/17 09:32:52;;;;;;;27.03;20.03;;;;;;;8.32;58.42;102002.41;10528957;28;20207;-84
2022/01/17 09:37:54;;;;;;;28.23;17.97;;;;;;;8.18;58.76;102016.00;10528326;28;20214;-85
2022/01/17 09:42:58;;;;;;;23.47;17.40;;;;;;;7.63;59.54;102037.81;10510340;28;20214;-83
2022/01/17 09:48:02;;;;;;;32.57;19.70;;;;;;;8.38;58.74;102053.72;10543048;28;20258;-82
2022/01/17 09:53:04;;;;;;;30.17;20.70;;;;;;;8.18;59.10;102069.22;10547840;28;20255;-83
2022/01/17 09:58:08;;;;;;;28.37;19.40;;;;;;;8.08;60.44;102071.06;10537069;28;20268;-83
2022/01/17 10:03:13;;;;;;;31.03;19.83;;;;;;;7.72;62.57;102092.19;10541698;28;20214;-83
2022/01/17 10:08:17;;;;;;;28.73;20.93;;;;;;;7.81;61.92;102101.78;10553729;28;20214;-83
2022/01/17 10:13:28;;;;;;;29.13;20.03;;;;;;;8.21;60.46;102085.47;10570603;28;20202;-84
2022/01/17 10:18:45;;;;;;;33.67;19.83;;;;;;;8.00;62.05;102089.16;10569882;28;20225;-84
2022/01/17 10:34:55;;;;;;;34.07;20.87;;;;;;;8.14;62.27;102068.06;10532719;28;20498;-84
2022/01/17 10:39:59;;;;;;;28.83;19.43;;;;;;;7.43;63.77;102058.78;10530223;28;20226;-85
2022/01/17 10:45:07;;;;;;;27.00;19.00;;;;;;;8.58;60.47;102048.34;10561215;28;20499;-83
2022/01/17 10:50:13;;;;;;;29.43;20.30;;;;;;;8.28;61.73;102049.69;10548446;28;20217;-83
2022/01/17 10:55:25;;;;;;;27.90;19.60;;;;;;;8.24;61.85;102059.75;10526099;28;20236;-84
2022/01/17 11:00:30;;;;;;;26.80;19.53;;;;;;;8.60;60.15;102083.38;10492669;28;20230;-83
2022/01/17 11:05:33;;;;;;;29.83;19.33;;;;;;;8.77;59.71;102107.63;10525862;28;20223;-83
2022/01/17 11:10:39;;;;;;;27.03;19.63;;;;;;;8.26;62.21;102115.50;10528567;28;20209;-84
2022/01/17 11:15:46;;;;;;;25.00;18.53;;;;;;;7.71;63.25;102105.31;10570140;28;20218;-84
2022/01/17 11:20:50;;;;;;;28.70;18.93;;;;;;;8.09;62.71;102104.38;10551714;28;20256;-83
2022/01/17 11:25:55;;;;;;;28.47;18.00;;;;;;;7.85;63.25;102089.00;10523770;28;20202;-82
2022/01/17 11:31:00;;;;;;;26.03;17.83;;;;;;;8.47;61.48;102071.78;10540000;28;20267;-83
2022/01/17 11:36:04;;;;;;;31.93;19.20;;;;;;;8.56;61.21;102076.59;10530135;28;20201;-83
2022/01/17 11:41:10;;;;;;;31.60;19.80;;;;;;;8.07;62.07;102087.00;10523746;28;20630;-82
2022/01/17 11:46:18;;;;;;;31.93;20.23;;;;;;;7.95;63.03;102077.91;10530915;28;20214;-83
2022/01/17 11:51:39;;;;;;;30.13;20.43;;;;;;;8.36;61.87;102086.75;10504630;28;20584;-83
2022/01/17 11:56:43;;;;;;;34.97;20.03;;;;;;;8.51;61.94;102099.00;10503954;28;20247;-84
2022/01/17 12:02:24;;;;;;;33.17;20.07;;;;;;;8.56;61.21;102085.00;10523881;28;20218;-83
2022/01/17 12:07:35;;;;;;;34.80;20.80;;;;;;;8.89;60.62;102069.91;10534817;28;20230;-83
2022/01/17 12:12:38;;;;;;;33.00;21.40;;;;;;;9.12;58.89;102079.03;10534343;28;20202;-83
2022/01/17 12:17:40;;;;;;;34.67;21.40;;;;;;;9.31;58.51;102077.47;10531162;28;20230;-83
2022/01/17 12:22:45;;;;;;;34.13;21.63;;;;;;;9.09;59.63;102068.34;10515272;28;20234;-83
2022/01/17 12:27:49;;;;;;;38.20;22.13;;;;;;;8.97;59.31;102111.44;10521778;28;20684;-82
2022/01/17 12:32:52;;;;;;;39.70;23.20;;;;;;;9.04;59.65;102104.78;10508269;28;20252;-83
2022/01/17 12:38:06;;;;;;;37.07;21.37;;;;;;;9.34;58.35;102099.34;10521786;28;20203;-85
2022/01/17 12:43:35;;;;;;;41.27;23.53;;;;;;;8.79;60.41;102111.03;10538985;28;20275;-84
2022/01/17 12:48:38;;;;;;;36.73;21.63;;;;;;;7.78;64.95;102079.94;10521457;28;20252;-84
2022/01/17 12:53:49;;;;;;;36.53;19.63;;;;;;;8.32;63.59;102101.28;10522840;28;20307;-83
2022/01/17 12:58:52;;;;;;;35.03;19.63;;;;;;;7.76;65.62;102091.38;10545580;28;20260;-83
2022/01/17 13:04:03;;;;;;;36.37;19.47;;;;;;;8.37;64.21;102086.50;10533260;28;20202;-84
2022/01/17 13:09:16;;;;;;;36.50;18.30;;;;;;;8.53;63.06;102073.53;10535659;28;20354;-83
2022/01/17 13:14:21;;;;;;;35.87;18.87;;;;;;;8.94;62.40;102081.13;10508755;28;20206;-84
2022/01/17 13:19:23;;;;;;;30.97;17.87;;;;;;;8.42;63.50;102108.13;10529833;28;20244;-83
2022/01/17 13:29:42;;;;;;;31.57;16.20;;;;;;;8.88;62.94;102079.41;10558828;28;20202;-82
2022/01/17 13:34:45;;;;;;;27.93;15.83;;;;;;;9.12;62.49;102062.19;10529392;28;20202;-84
2022/01/17 13:39:47;;;;;;;28.77;16.20;;;;;;;9.03;62.05;102059.06;10508125;28;20612;-84
2022/01/17 13:44:53;;;;;;;37.20;16.67;;;;;;;9.14;62.54;102088.03;10513106;28;20220;-85
2022/01/17 13:49:56;;;;;;;27.93;15.00;;;;;;;9.86;58.79;102096.56;10510697;28;20217;-84
2022/01/17 13:54:58;;;;;;;27.23;14.90;;;;;;;8.97;62.70;102100.22;10524547;28;20240;-84
2022/01/17 14:00:21;;;;;;;33.30;15.70;;;;;;;9.56;59.88;102091.69;10529240;28;20763;-85
2022/01/17 14:05:30;;;;;;;30.37;16.93;;;;;;;9.23;60.70;102100.41;10525477;28;20515;-85
2022/01/17 14:10:34;;;;;;;23.80;15.13;;;;;;;9.87;59.05;102098.28;10535842;28;20207;-83
2022/01/17 14:15:36;;;;;;;33.33;15.20;;;;;;;8.57;62.74;102102.66;10497295;28;20505;-84
2022/01/17 14:20:39;;;;;;;28.87;13.23;;;;;;;8.37;63.08;102120.09;10483100;28;20568;-84
2022/01/17 14:25:41;;;;;;;41.37;13.30;;;;;;;9.42;60.93;102112.91;10484957;28;20229;-85
2022/01/17 14:30:44;;;;;;;26.17;12.97;;;;;;;9.22;61.83;102129.56;10479678;28;20277;-84
2022/01/17 14:36:11;;;;;;;25.40;11.53;;;;;;;9.28;61.75;102146.19;10478711;28;20199;-84
2022/01/17 14:41:19;;;;;;;32.77;11.27;;;;;;;9.18;61.49;102136.84;10478341;28;20227;-85
2022/01/17 14:46:25;;;;;;;25.90;10.67;;;;;;;9.54;60.32;102133.16;10480418;28;20203;-84
2022/01/17 14:51:32;;;;;;;33.43;10.47;;;;;;;9.38;61.78;102131.38;10460040;28;20216;-83
2022/01/17 15:02:08;;;;;;;28.47;10.33;;;;;;;10.02;58.93;102181.72;10481801;28;20272;-85
2022/01/17 15:07:15;;;;;;;33.97;11.70;;;;;;;8.95;64.29;102175.34;10468685;28;20222;-85
2022/01/17 15:12:19;;;;;;;22.80;10.10;;;;;;;8.74;64.45;102162.25;10482500;28;20546;-83
2022/01/17 15:17:26;;;;;;;28.33;10.43;;;;;;;9.56;61.71;102186.25;10487558;28;20231;-84
2022/01/17 15:22:29;;;;;;;29.53;12.57;;;;;;;10.27;59.12;102204.31;10469033;28;20222;-84
2022/01/17 15:27:31;;;;;;;30.73;12.93;;;;;;;8.54;64.62;102176.88;10474278;28;20651;-83
2022/01/17 15:32:35;;;;;;;23.23;10.70;;;;;;;9.49;62.43;102175.22;10480248;28;20222;-83
2022/01/17 15:37:37;;;;;;;33.30;11.77;;;;;;;10.42;58.33;102218.41;10470041;28;20206;-83
2022/01/17 15:42:40;;;;;;;34.77;11.80;;;;;;;10.04;59.02;102211.22;10465401;28;20219;-84
2022/01/17 15:47:42;;;;;;;29.73;11.27;;;;;;;8.83;64.15;102199.88;10484447;28;20293;-85
2022/01/17 15:52:45;;;;;;;40.47;11.70;;;;;;;9.90;61.00;102212.00;10483744;28;20594;-85
2022/01/17 15:57:47;;;;;;;22.10;8.93;;;;;;;9.02;63.35;102214.38;10482707;28;20244;-86
2022/01/17 16:02:50;;;;;;;28.07;8.97;;;;;;;9.44;62.03;102217.28;10480747;28;20219;-85
2022/01/17 16:07:53;;;;;;;28.10;7.67;;;;;;;9.14;63.80;102214.19;10464688;28;20226;-85
2022/01/17 16:12:55;;;;;;;22.87;7.37;;;;;;;9.68;61.48;102235.44;10450148;28;20280;-86
2022/01/17 16:17:59;;;;;;;24.10;6.97;;;;;;;8.30;65.70;102240.72;10505717;28;20662;-85
2022/01/17 16:23:02;;;;;;;24.37;7.10;;;;;;;9.48;61.46;102211.94;10520793;28;20230;-84
2022/01/17 16:28:06;;;;;;;29.60;7.30;;;;;;;9.66;61.16;102225.59;10505143;28;20590;-85
2022/01/17 16:33:11;;;;;;;26.57;7.33;;;;;;;9.47;62.47;102244.78;10493812;28;20202;-84
2022/01/17 16:38:35;;;;;;;23.87;6.07;;;;;;;10.53;58.64;102236.16;10528229;28;20198;-85
2022/01/17 16:43:39;;;;;;;31.20;5.90;;;;;;;9.07;63.45;102250.00;10510778;28;20637;-85
2022/01/17 16:48:43;;;;;;;29.73;5.60;;;;;;;10.00;60.26;102248.53;10549363;28;20240;-85
2022/01/17 16:53:46;;;;;;;30.17;4.90;;;;;;;9.79;60.40;102261.63;10525983;28;20606;-86
2022/01/17 16:58:49;;;;;;;18.17;4.40;;;;;;;9.17;63.65;102261.34;10522391;28;20198;-85
2022/01/17 17:03:51;;;;;;;24.37;4.93;;;;;;;9.58;62.13;102277.44;10520408;28;20226;-85
2022/01/17 17:08:54;;;;;;;27.63;4.67;;;;;;;10.59;58.74;102284.81;10502690;28;20253;-84
2022/01/17 17:13:56;;;;;;;24.83;5.40;;;;;;;9.13;63.60;102291.03;10518260;28;20202;-83
2022/01/17 17:19:02;;;;;;;31.73;6.07;;;;;;;9.36;62.75;102287.88;10483038;28;20573;-84
2022/01/17 17:24:10;;;;;;;32.03;5.47;;;;;;;10.03;59.76;102292.94;10502134;28;20263;-85
2022/01/17 17:29:18;;;;;;;27.63;5.63;;;;;;;9.94;59.41;102311.41;10434624;28;517429;-85
2022/01/17 17:34:30;;;;;;;26.67;4.80;;;;;;;5.00;63.11;102283.88;10484618;27;20662;-84
2022/01/17 17:43:57;;;;;;;22.27;5.33;;;;;;;7.33;62.35;102322.91;10387892;27;20630;-86
2022/01/17 17:49:00;;;;;;;24.87;4.73;;;;;;;7.31;62.74;102342.00;10401364;28;20273;-86
2022/01/17 17:54:03;;;;;;;20.30;4.93;;;;;;;7.26;62.10;102330.72;10398435;28;20276;-86
2022/01/17 17:59:06;;;;;;;26.37;4.43;;;;;;;7.28;62.15;102336.91;10380218;28;20228;-85
2022/01/17 18:04:09;;;;;;;28.47;5.03;;;;;;;7.48;61.48;102330.63;10397688;28;20607;-85
2022/01/17 18:10:07;;;;;;;37.47;5.83;;;;;;;7.71;61.19;102319.09;10478362;27;20584;-84
2022/01/17 18:15:09;;;;;;;29.13;5.30;;;;;;;7.84;60.50;102337.44;10476557;28;20253;-86
2022/01/17 18:23:10;;;;;;;24.03;4.60;;;;;;;5.45;64.01;102365.44;10487306;27;20575;-85
2022/01/17 18:28:14;;;;;;;19.60;4.87;;;;;;;6.30;61.71;102325.53;10431430;28;20243;-84
2022/01/17 18:33:19;;;;;;;23.43;4.07;;;;;;;5.80;62.60;102349.09;10423242;28;20246;-84
2022/01/17 18:38:21;;;;;;;28.17;5.33;;;;;;;6.25;60.12;102364.72;10434196;28;20243;-83
2022/01/17 18:47:46;;;;;;;27.23;4.70;;;;;;;6.08;62.34;102387.63;10404248;27;1229816;-86
2022/01/17 18:52:53;;;;;;;26.53;4.13;;;;;;;7.29;58.00;102382.47;10511408;28;20202;-84
2022/01/17 18:57:55;;;;;;;17.53;4.20;;;;;;;7.91;56.66;102406.25;10524316;28;20228;-85
2022/01/17 19:02:57;;;;;;;24.27;4.47;;;;;;;6.42;60.02;102404.28;10506035;28;20227;-86
2022/01/17 19:08:00;;;;;;;22.10;4.10;;;;;;;7.65;57.35;102392.03;10518260;28;20300;-86
2022/01/17 19:13:05;;;;;;;19.27;3.70;;;;;;;6.87;59.78;102401.22;10526609;28;20263;-85
2022/01/17 19:24:16;;;;;;;26.23;5.37;;;;;;;8.70;53.28;102394.84;10449545;27;1285514;-86
2022/01/17 19:33:56;;;;;;;21.70;4.20;;;;;;;7.32;56.53;102415.00;10526097;27;20587;-85
2022/01/17 19:40:21;;;;;;;20.97;4.70;;;;;;;7.63;54.23;102417.38;10486603;27;20644;-86
2022/01/17 19:50:31;;;;;;;23.73;4.60;;;;;;;6.39;56.30;102442.84;10615771;27;20551;-86
2022/01/17 19:55:33;;;;;;;25.80;4.40;;;;;;;6.19;55.58;102463.19;10580568;27;20266;-85
2022/01/17 20:00:35;;;;;;;27.53;4.60;;;;;;;6.88;53.93;102463.16;10523567;27;20637;-85
2022/01/17 20:05:37;;;;;;;21.63;5.37;;;;;;;6.41;55.53;102474.31;10559557;28;20214;-84
2022/01/17 20:10:40;;;;;;;23.20;5.13;;;;;;;5.87;56.90;102474.38;10506111;28;20747;-83
2022/01/17 20:15:42;;;;;;;18.13;3.80;;;;;;;5.97;56.54;102484.84;10511534;28;20260;-86
2022/01/17 20:20:46;;;;;;;24.83;3.73;;;;;;;5.98;56.56;102500.59;10517127;28;20202;-84
2022/01/17 20:25:48;;;;;;;21.30;4.77;;;;;;;5.07;58.99;102500.28;10528383;28;20282;-83
2022/01/17 20:30:51;;;;;;;25.10;4.17;;;;;;;5.06;58.18;102509.78;10560139;28;20198;-84
2022/01/17 20:35:53;;;;;;;23.17;4.20;;;;;;;5.65;56.82;102524.94;10548898;28;20203;-84
2022/01/17 20:40:57;;;;;;;20.47;4.43;;;;;;;5.92;57.00;102524.13;10540664;28;20228;-85
2022/01/17 20:46:02;;;;;;;22.83;3.67;;;;;;;5.95;56.74;102532.00;10525438;28;20234;-84
2022/01/17 20:51:05;;;;;;;21.57;5.33;;;;;;;6.17;55.16;102536.47;10504738;28;20207;-85
2022/01/17 20:56:08;;;;;;;18.30;3.77;;;;;;;5.73;56.91;102551.69;10528223;28;20676;-85
2022/01/17 21:01:11;;;;;;;20.23;4.83;;;;;;;5.32;58.50;102562.31;10525545;28;20203;-84
2022/01/17 21:06:13;;;;;;;23.90;4.23;;;;;;;6.18;55.53;102549.41;10529715;28;20271;-85
2022/01/17 21:11:15;;;;;;;27.10;5.73;;;;;;;5.73;56.53;102552.53;10541234;28;20675;-85
2022/01/17 21:16:17;;;;;;;21.20;3.63;;;;;;;6.95;53.69;102548.16;10500489;28;20231;-85
2022/01/17 21:21:21;;;;;;;19.43;4.47;;;;;;;6.73;53.02;102545.44;10513364;28;20199;-85
2022/01/17 21:26:23;;;;;;;24.17;4.13;;;;;;;6.49;55.04;102542.09;10496688;28;20273;-85
2022/01/17 21:31:25;;;;;;;18.80;4.93;;;;;;;7.14;52.54;102546.56;10505777;28;20203;-85
2022/01/17 21:36:28;;;;;;;16.93;5.13;;;;;;;6.74;54.49;102560.34;10546466;28;20194;-85
2022/01/17 21:41:30;;;;;;;22.67;4.73;;;;;;;6.78;53.58;102553.91;10531107;28;20257;-85
2022/01/17 21:46:32;;;;;;;24.80;4.90;;;;;;;6.75;53.70;102548.81;10523379;28;20563;-85
2022/01/17 21:51:34;;;;;;;24.97;4.60;;;;;;;7.06;52.46;102543.44;10504382;28;20199;-85
2022/01/17 21:56:36;;;;;;;22.43;4.57;;;;;;;6.51;53.68;102542.69;10483999;28;20651;-85
2022/01/17 22:01:39;;;;;;;15.33;4.10;;;;;;;6.93;52.58;102547.56;10503860;28;20192;-85
2022/01/17 22:06:41;;;;;;;16.80;3.40;;;;;;;7.07;52.10;102531.06;10470029;28;20677;-85
2022/01/17 22:11:43;;;;;;;28.87;4.73;;;;;;;6.79;53.01;102535.09;10485118;28;20603;-85
2022/01/17 22:16:46;;;;;;;23.07;5.27;;;;;;;7.56;50.61;102520.34;10512781;28;20203;-85
2022/01/17 22:21:50;;;;;;;22.33;4.10;;;;;;;7.22;51.52;102529.22;10495547;28;20195;-86
2022/01/17 22:26:52;;;;;;;14.27;3.10;;;;;;;7.42;51.13;102536.03;10502497;28;20253;-85
2022/01/17 22:31:54;;;;;;;17.50;3.47;;;;;;;6.80;52.18;102542.41;10466029;28;20289;-85
2022/01/17 22:36:56;;;;;;;23.13;4.20;;;;;;;6.17;55.33;102549.66;10444376;28;20184;-85
2022/01/17 22:41:59;;;;;;;19.10;3.80;;;;;;;5.87;55.52;102546.50;10461458;28;20650;-84
2022/01/17 22:47:03;;;;;;;24.20;3.57;;;;;;;6.09;55.26;102558.56;10476665;28;20224;-85
2022/01/17 22:52:05;;;;;;;19.17;3.87;;;;;;;6.40;54.04;102562.53;10459943;28;20192;-85
2022/01/17 22:57:07;;;;;;;14.80;3.47;;;;;;;6.35;55.09;102560.50;10424011;28;20208;-85
2022/01/17 23:02:09;;;;;;;15.63;3.70;;;;;;;6.00;54.95;102561.00;10418521;28;20200;-85
2022/01/17 23:07:12;;;;;;;18.43;3.57;;;;;;;5.97;55.75;102557.84;10419317;28;20266;-84
2022/01/17 23:12:14;;;;;;;22.37;3.80;;;;;;;5.99;55.90;102566.88;10401645;28;20205;-84
2022/01/17 23:17:18;;;;;;;18.60;3.73;;;;;;;5.99;55.41;102558.44;10420042;28;20254;-85
2022/01/17 23:22:24;;;;;;;20.60;3.60;;;;;;;6.28;54.72;102554.28;10433880;28;20270;-85
2022/01/17 23:27:27;;;;;;;17.50;4.03;;;;;;;6.82;53.04;102554.25;10419344;28;20200;-85
2022/01/17 23:37:50;;;;;;;23.33;3.80;;;;;;;5.76;56.05;102546.41;10417558;28;20200;-85
2022/01/17 23:42:59;;;;;;;21.60;3.73;;;;;;;5.64;56.09;102550.41;10433012;28;20261;-84
2022/01/17 23:48:01;;;;;;;15.40;3.83;;;;;;;6.17;55.15;102541.25;10421728;28;20297;-84
2022/01/17 23:53:04;;;;;;;17.30;3.40;;;;;;;5.52;56.25;102555.31;10418373;28;20211;-84
2022/01/17 23:58:17;;;;;;;16.60;3.37;;;;;;;6.67;52.52;102554.06;10403814;28;20486;-84
